createdAt,value
2022-12-06T00:00:10.239Z,99.90
2022-12-06T00:03:54.587Z,99.90
2022-12-06T00:07:36.506Z,99.90
2022-12-06T00:11:22.329Z,99.90
2022-12-06T00:15:04.523Z,99.90
2022-12-06T00:18:46.846Z,99.90
2022-12-06T00:22:28.670Z,99.90
2022-12-06T00:26:11.119Z,99.90
2022-12-06T00:29:52.945Z,99.90
2022-12-06T00:33:36.210Z,99.90
2022-12-06T00:37:18.070Z,99.90
2022-12-06T00:41:04.969Z,99.90
2022-12-06T00:44:46.818Z,99.90
2022-12-06T00:48:29.059Z,99.90
2022-12-06T00:52:10.985Z,99.90
2022-12-06T00:55:53.028Z,99.90
2022-12-06T00:59:34.901Z,99.90
2022-12-06T01:03:18.147Z,99.90
2022-12-06T01:07:00.654Z,99.90
2022-12-06T01:10:43.083Z,99.90
2022-12-06T01:14:25.585Z,99.90
2022-12-06T01:18:07.314Z,99.90
2022-12-06T01:21:49.481Z,99.90
2022-12-06T01:25:35.731Z,99.90
2022-12-06T01:29:19.023Z,99.90
2022-12-06T01:33:00.810Z,99.90
2022-12-06T01:36:43.073Z,99.90
2022-12-06T01:40:24.847Z,99.90
2022-12-06T01:44:06.888Z,99.90
2022-12-06T01:47:48.837Z,99.90
2022-12-06T01:51:31.210Z,99.90
2022-12-06T01:55:14.067Z,99.90
2022-12-06T01:58:57.791Z,99.90
2022-12-06T02:02:39.696Z,99.90
2022-12-06T02:06:21.976Z,99.90
2022-12-06T02:10:04.209Z,99.90
2022-12-06T02:13:46.236Z,99.90
2022-12-06T02:17:40.184Z,99.90
2022-12-06T02:21:34.205Z,99.90
2022-12-06T02:25:43.058Z,99.90
2022-12-06T02:29:50.158Z,99.90
2022-12-06T02:33:40.133Z,99.90
2022-12-06T02:37:29.484Z,99.90
2022-12-06T02:41:25.608Z,99.90
2022-12-06T02:45:16.585Z,99.90
2022-12-06T02:49:02.530Z,99.90
2022-12-06T02:52:48.523Z,99.90
2022-12-06T02:56:33.008Z,99.90
2022-12-06T03:00:31.673Z,99.90
2022-12-06T03:04:34.545Z,99.90
2022-12-06T03:08:28.764Z,99.90
2022-12-06T03:12:40.329Z,99.90
2022-12-06T03:16:30.163Z,99.90
2022-12-06T03:20:19.045Z,99.90
2022-12-06T03:24:01.573Z,99.90
2022-12-06T03:27:45.013Z,99.90
2022-12-06T03:31:30.554Z,99.90
2022-12-06T03:35:17.597Z,99.90
2022-12-06T03:39:03.844Z,99.90
2022-12-06T03:42:47.292Z,99.90
2022-12-06T03:46:35.242Z,99.90
2022-12-06T03:50:22.447Z,99.90
2022-12-06T03:54:07.165Z,99.90
2022-12-06T03:57:48.930Z,99.90
2022-12-06T04:01:30.761Z,99.90
2022-12-06T04:05:12.704Z,99.90
2022-12-06T04:09:14.509Z,99.90
2022-12-06T04:13:02.015Z,99.90
2022-12-06T04:17:02.313Z,99.90
2022-12-06T04:21:11.558Z,99.90
2022-12-06T04:24:53.307Z,99.90
2022-12-06T04:28:53.693Z,99.90
2022-12-06T04:32:54.194Z,99.90
2022-12-06T04:36:55.921Z,99.90
2022-12-06T04:40:37.719Z,99.90
2022-12-06T04:44:19.461Z,99.90
2022-12-06T04:48:01.225Z,99.90
2022-12-06T04:51:43.026Z,99.90
2022-12-06T04:55:24.826Z,99.90
2022-12-06T04:59:06.594Z,99.90
2022-12-06T05:02:48.317Z,99.90
2022-12-06T05:06:30.051Z,99.90
2022-12-06T05:10:12.022Z,99.90
2022-12-06T05:13:53.852Z,99.90
2022-12-06T05:17:35.604Z,99.90
2022-12-06T05:21:19.807Z,99.90
2022-12-06T05:25:01.591Z,99.90
2022-12-06T05:28:44.185Z,99.90
2022-12-06T05:32:25.932Z,99.90
2022-12-06T05:36:13.204Z,99.90
2022-12-06T05:39:54.995Z,99.90
2022-12-06T05:43:36.985Z,99.90
2022-12-06T05:47:18.721Z,99.90
2022-12-06T05:51:00.875Z,99.90
2022-12-06T05:54:42.621Z,99.90
2022-12-06T05:58:24.374Z,99.90
2022-12-06T06:02:06.533Z,99.90
2022-12-06T06:05:50.245Z,99.90
2022-12-06T06:09:31.959Z,99.90
2022-12-06T06:13:13.716Z,99.90
2022-12-06T06:16:55.572Z,99.90
2022-12-06T06:20:37.333Z,99.90
2022-12-06T06:24:19.061Z,99.90
2022-12-06T06:28:00.776Z,99.90
2022-12-06T06:31:42.594Z,99.90
2022-12-06T06:35:24.992Z,99.90
2022-12-06T06:39:06.736Z,99.90
2022-12-06T06:42:48.413Z,99.90
2022-12-06T06:46:30.200Z,99.90
2022-12-06T06:50:12.312Z,99.90
2022-12-06T06:53:54.054Z,99.90
2022-12-06T06:57:36.192Z,99.90
2022-12-06T07:01:20.563Z,99.90
2022-12-06T07:05:02.394Z,99.90
2022-12-06T07:08:44.409Z,99.90
2022-12-06T07:12:26.137Z,99.90
2022-12-06T07:16:12.821Z,99.90
2022-12-06T07:19:54.624Z,99.90
2022-12-06T07:23:36.933Z,99.90
2022-12-06T07:27:18.675Z,99.90
2022-12-06T07:31:08.693Z,99.90
2022-12-06T07:34:50.500Z,99.90
2022-12-06T07:38:32.290Z,99.90
2022-12-06T07:42:32.623Z,99.90
2022-12-06T07:46:14.468Z,99.90
2022-12-06T07:49:56.253Z,99.90
2022-12-06T07:53:38.008Z,99.90
2022-12-06T07:57:21.675Z,99.90
2022-12-06T08:01:04.651Z,99.90
2022-12-06T08:04:46.955Z,99.90
2022-12-06T08:08:29.261Z,99.90
2022-12-06T08:12:11.446Z,99.90
2022-12-06T08:15:53.237Z,99.90
2022-12-06T08:19:35.002Z,99.90
2022-12-06T08:23:16.760Z,99.90
2022-12-06T08:27:00.192Z,99.90
2022-12-06T08:30:42.097Z,99.90
2022-12-06T08:34:24.098Z,99.90
2022-12-06T08:38:05.867Z,99.90
2022-12-06T08:41:58.220Z,99.90
2022-12-06T08:45:39.982Z,99.90
2022-12-06T08:49:23.207Z,99.90
2022-12-06T08:53:04.982Z,99.90
2022-12-06T08:56:47.121Z,99.90
2022-12-06T09:00:28.874Z,99.90
2022-12-06T09:04:11.656Z,99.90
2022-12-06T09:07:53.502Z,99.90
2022-12-06T09:11:35.425Z,99.90
2022-12-06T09:15:17.219Z,99.90
2022-12-06T09:18:59.077Z,99.90
2022-12-06T09:22:40.900Z,99.90
2022-12-06T09:26:23.009Z,99.90
2022-12-06T09:30:05.712Z,99.90
2022-12-06T09:33:47.881Z,99.90
2022-12-06T09:37:29.756Z,99.90
2022-12-06T09:41:33.471Z,99.90
2022-12-06T09:45:29.069Z,99.90
2022-12-06T09:49:22.170Z,99.90
2022-12-06T09:53:31.353Z,99.90
2022-12-06T09:57:13.074Z,99.90
2022-12-06T10:01:27.905Z,99.90
2022-12-06T10:05:36.738Z,99.90
2022-12-06T10:09:26.568Z,99.90
2022-12-06T10:13:08.303Z,99.90
2022-12-06T10:17:11.909Z,99.90
2022-12-06T10:21:05.850Z,99.90
2022-12-06T10:25:16.046Z,99.90
2022-12-06T10:29:18.490Z,99.90
2022-12-06T10:33:38.946Z,99.90
2022-12-06T10:37:45.166Z,99.90
2022-12-06T10:41:33.985Z,99.90
2022-12-06T10:45:48.466Z,99.90
2022-12-06T10:49:52.512Z,99.90
2022-12-06T10:53:47.008Z,99.90
2022-12-06T10:57:54.921Z,99.90
2022-12-06T11:01:43.567Z,99.90
2022-12-06T11:05:36.128Z,99.90
2022-12-06T11:09:40.053Z,99.90
2022-12-06T11:13:28.806Z,99.90
2022-12-06T11:17:24.231Z,99.90
2022-12-06T11:21:24.404Z,99.90
2022-12-06T11:25:19.325Z,99.90
2022-12-06T11:29:06.788Z,99.90
2022-12-06T11:32:51.250Z,99.90
2022-12-06T11:36:33.233Z,99.90
2022-12-06T11:40:31.363Z,99.90
2022-12-06T11:44:21.741Z,99.90
2022-12-06T11:48:22.915Z,99.90
2022-12-06T11:52:30.814Z,99.90
2022-12-06T11:56:25.091Z,99.90
2022-12-06T12:00:23.750Z,99.90
2022-12-06T12:04:27.119Z,99.90
2022-12-06T12:08:19.987Z,99.90
2022-12-06T12:12:12.370Z,99.90
2022-12-06T12:15:54.302Z,99.90
2022-12-06T12:19:50.639Z,99.90
2022-12-06T12:23:42.360Z,99.90
2022-12-06T12:27:43.121Z,99.90
2022-12-06T12:31:26.612Z,99.90
2022-12-06T12:35:42.141Z,99.90
2022-12-06T12:39:38.619Z,99.90
2022-12-06T12:43:34.313Z,99.90
2022-12-06T12:47:19.615Z,99.90
2022-12-06T12:51:05.227Z,99.90
2022-12-06T12:55:19.091Z,99.90
2022-12-06T12:59:05.406Z,99.90
2022-12-06T13:03:03.391Z,99.90
2022-12-06T13:07:17.524Z,99.90
2022-12-06T13:11:03.177Z,99.90
2022-12-06T13:14:52.522Z,99.90
2022-12-06T13:18:44.854Z,99.90
2022-12-06T13:22:30.688Z,99.90
2022-12-06T13:26:21.184Z,99.90
2022-12-06T13:30:18.902Z,99.90
2022-12-06T13:34:06.618Z,99.90
2022-12-06T13:38:03.308Z,99.90
2022-12-06T13:42:12.697Z,99.90
2022-12-06T13:46:09.489Z,99.90
2022-12-06T13:49:51.302Z,99.90
2022-12-06T13:53:34.096Z,99.90
2022-12-06T13:57:23.866Z,99.90
2022-12-06T14:01:40.958Z,99.90
2022-12-06T14:09:46.730Z,99.90
2022-12-06T14:13:28.474Z,99.90
2022-12-06T14:17:32.114Z,99.60
2022-12-06T14:21:27.573Z,99.90
2022-12-06T14:25:25.369Z,99.90
2022-12-06T14:29:22.391Z,99.90
2022-12-06T14:33:22.052Z,99.90
2022-12-06T14:37:18.741Z,99.90
2022-12-06T14:41:19.199Z,99.90
2022-12-06T14:45:02.614Z,99.90
2022-12-06T14:49:03.847Z,98.40
2022-12-06T14:53:16.331Z,94.60
2022-12-06T14:56:58.643Z,95.70
2022-12-06T15:00:54.643Z,90.90
2022-12-06T15:04:40.027Z,92.00
2022-12-06T15:08:27.868Z,91.90
2022-12-06T15:12:45.312Z,92.90
2022-12-06T15:16:27.183Z,94.60
2022-12-06T15:20:17.950Z,94.30
2022-12-06T15:23:59.699Z,94.80
2022-12-06T15:27:41.518Z,94.90
2022-12-06T15:31:28.630Z,95.50
2022-12-06T15:35:18.294Z,95.70
2022-12-06T15:39:00.063Z,96.90
2022-12-06T15:42:41.869Z,96.60
2022-12-06T15:46:26.018Z,97.20
2022-12-06T15:50:08.425Z,97.60
2022-12-06T15:53:50.704Z,98.10
2022-12-06T15:57:32.518Z,98.60
2022-12-06T16:01:28.880Z,99.40
2022-12-06T16:05:16.259Z,99.90
2022-12-06T16:08:57.972Z,99.90
2022-12-06T16:12:58.558Z,99.90
2022-12-06T16:16:43.544Z,99.90
2022-12-06T16:20:31.509Z,99.90
2022-12-06T16:24:14.632Z,99.90
2022-12-06T16:27:56.787Z,99.90
2022-12-06T16:31:41.024Z,99.90
2022-12-06T16:35:22.946Z,99.90
2022-12-06T16:39:05.563Z,99.90
2022-12-06T16:42:47.415Z,99.90
2022-12-06T16:46:34.301Z,99.90
2022-12-06T16:50:24.261Z,99.90
2022-12-06T16:54:06.436Z,99.90
2022-12-06T16:57:48.149Z,99.90
2022-12-06T17:01:32.323Z,99.90
2022-12-06T17:05:18.919Z,99.90
2022-12-06T17:09:00.720Z,99.90
2022-12-06T17:12:43.503Z,99.90
2022-12-06T17:16:25.355Z,99.90
2022-12-06T17:20:08.589Z,99.90
2022-12-06T17:23:50.447Z,99.90
2022-12-06T17:27:33.058Z,99.90
2022-12-06T17:31:14.816Z,99.90
2022-12-06T17:34:56.601Z,99.90
2022-12-06T17:38:38.961Z,99.90
2022-12-06T17:42:39.133Z,99.90
2022-12-06T17:46:20.950Z,99.90
2022-12-06T17:50:04.437Z,99.90
2022-12-06T17:53:46.469Z,99.90
2022-12-06T17:57:28.318Z,99.90
2022-12-06T18:01:10.096Z,99.90
2022-12-06T18:04:53.842Z,99.90
2022-12-06T18:08:35.755Z,99.90
2022-12-06T18:12:17.649Z,99.90
2022-12-06T18:15:59.382Z,99.90
2022-12-06T18:19:41.286Z,99.90
2022-12-06T18:23:23.065Z,99.90
2022-12-06T18:27:06.099Z,99.90
2022-12-06T18:30:47.846Z,99.90
2022-12-06T18:34:29.659Z,99.90
2022-12-06T18:38:11.391Z,99.90
2022-12-06T18:41:54.388Z,99.90
2022-12-06T18:45:36.224Z,99.90
2022-12-06T18:49:18.719Z,99.90
2022-12-06T18:53:01.542Z,99.90
2022-12-06T18:56:43.398Z,99.90
2022-12-06T19:00:25.171Z,99.90
2022-12-06T19:04:09.255Z,99.90
2022-12-06T19:07:51.063Z,99.90
2022-12-06T19:11:36.569Z,99.90
2022-12-06T19:15:18.538Z,99.90
2022-12-06T19:19:02.422Z,99.90
2022-12-06T19:22:44.333Z,99.90
2022-12-06T19:26:27.665Z,99.90
2022-12-06T19:30:10.048Z,99.90
2022-12-06T19:33:52.654Z,99.90
2022-12-06T19:37:34.442Z,99.90
2022-12-06T19:41:18.160Z,99.90
2022-12-06T19:44:59.951Z,99.90
2022-12-06T19:48:42.044Z,99.90
2022-12-06T19:52:27.893Z,99.90
2022-12-06T19:56:16.196Z,99.90
2022-12-06T19:59:58.061Z,99.90
2022-12-06T20:03:39.895Z,99.90
2022-12-06T20:07:21.976Z,99.90
2022-12-06T20:11:06.159Z,99.90
2022-12-06T20:14:49.172Z,99.90
2022-12-06T20:18:32.129Z,99.90
2022-12-06T20:22:15.338Z,99.90
2022-12-06T20:25:57.646Z,99.90
2022-12-06T20:29:40.169Z,99.90
2022-12-06T20:33:22.803Z,99.90
2022-12-06T20:37:06.317Z,99.90
2022-12-06T20:40:48.050Z,99.90
2022-12-06T20:44:30.062Z,99.90
2022-12-06T20:48:11.840Z,99.90
2022-12-06T20:51:53.974Z,99.90
2022-12-06T20:55:35.763Z,99.90
2022-12-06T20:59:17.597Z,99.90
2022-12-06T21:02:59.419Z,99.90
2022-12-06T21:06:41.831Z,99.90
2022-12-06T21:10:23.568Z,99.90
2022-12-06T21:14:06.126Z,99.90
2022-12-06T21:17:47.898Z,99.90
2022-12-06T21:21:38.696Z,99.90
2022-12-06T21:25:20.706Z,99.90
2022-12-06T21:29:03.450Z,99.90
2022-12-06T21:32:45.197Z,99.90
2022-12-06T21:36:27.617Z,99.90
2022-12-06T21:40:09.789Z,99.90
2022-12-06T21:43:51.797Z,99.90
2022-12-06T21:47:33.550Z,99.90
2022-12-06T21:51:15.478Z,99.90
2022-12-06T21:54:57.256Z,99.90
2022-12-06T21:58:39.108Z,99.90
2022-12-06T22:02:20.917Z,99.90
2022-12-06T22:06:11.080Z,99.90
2022-12-06T22:09:52.871Z,99.90
2022-12-06T22:13:37.669Z,99.90
2022-12-06T22:17:19.497Z,99.90
2022-12-06T22:21:04.378Z,99.90
2022-12-06T22:24:46.221Z,99.90
2022-12-06T22:28:27.913Z,99.90
2022-12-06T22:32:09.681Z,99.90
2022-12-06T22:35:51.436Z,99.90
2022-12-06T22:39:33.157Z,99.90
2022-12-06T22:43:14.914Z,99.90
2022-12-06T22:46:56.689Z,99.90
2022-12-06T22:50:38.443Z,99.90
2022-12-06T22:54:20.203Z,99.90
2022-12-06T22:58:01.977Z,99.90
2022-12-06T23:01:44.512Z,99.90
2022-12-06T23:05:26.275Z,99.90
2022-12-06T23:09:08.749Z,99.90
2022-12-06T23:12:50.568Z,99.90
2022-12-06T23:16:32.962Z,99.90
2022-12-06T23:20:14.938Z,99.90
2022-12-06T23:24:02.307Z,99.90
2022-12-06T23:27:43.975Z,99.90
2022-12-06T23:31:28.272Z,99.90
2022-12-06T23:35:10.150Z,99.90
2022-12-06T23:38:52.832Z,99.90
2022-12-06T23:42:34.564Z,99.90
2022-12-06T23:46:22.170Z,99.90
2022-12-06T23:50:04.595Z,99.90
2022-12-06T23:53:53.290Z,99.90
2022-12-06T23:57:35.005Z,99.90
